Hovedside
METAR-TAF:

METAR-TAF

Lufthavner :

Tammerfors, Finland

Tammerfors-Birkala lufthavn

breddegrad: 61-25N, lengdegrad: 023-35E, høyde over havet: 112 m

Gjeldene værobservasjon

Denne rapporten ble laget for 15 minutter siden, klokken 22:20 UTC
Vind 4 kt fra Nord-nordøst
Temperatur 13°C
Luftfuktighet 100%
Trykk 1013 hPa
Sikt 10 km eller mer
ingen skyer under 1500 m og ingen bygeskyer

METAR: EFTP 242220Z AUTO 03004KT CAVOK 13/13 Q1013

Tid: 01:35 (22:35 UTC)

Varsel

Denne rapporten ble laget for 2 timer og 12 minutter siden, klokken 20:23 UTC
Varsel gyldig fra 24. klokken 21 UTC til 25. klokken 21 UTC
Vind 3 kt fra Nord-nordøst
Sikt 10 km eller mer
ingen skyer under 1500 m og ingen bygeskyer

TAF: EFTP 242023Z 2421/2521 03003KT CAVOK

Værobservasjoner og værvarsel for over 4000 flyplasser (METAR- og TAF-rapporter).

Tilgjengelige stasjoner er representert av de røde og gule prikkene på kartet.

Hold musepekeren over prikken for å se navnet på stasjonen.

Klikk så for å se værobservasjoner og -varsler.

For å forandre kartet kan du klikke på den grønne knappen med svart kryss for å zoome inn, på den grønne knappen med strek for å zoome ut, eller på de grønne pilene for å se tilstøtende kart.


METAR-TAF: